Time;durP1;ratioP1;P1;durP2;ratioP2;P2;SDS_P1;SDS_P2;PMS_P1;PMS_P2;Temp;Humidity;BMP_temperature;BMP_pressure;BME280_temperature;BME280_humidity;BME280_pressure;Samples;Min_cycle;Max_cycle;Signal;HPM_P1;HPM_P2
2022/08/09 00:01:47;;;;;;;10.00;1.50;;;;;;;26.23;31.01;98718.41;4988559;28;20144;-80
2022/08/09 00:04:18;;;;;;;5.15;1.60;;;;;;;26.17;30.84;98720.91;4973404;28;20023;-78
2022/08/09 00:06:44;;;;;;;2.47;1.52;;;;;;;26.23;30.86;98726.44;4941736;28;20413;-80
2022/08/09 00:09:10;;;;;;;3.70;1.70;;;;;;;26.23;31.08;98724.56;4956785;28;20023;-80
2022/08/09 00:11:36;;;;;;;3.35;1.70;;;;;;;26.20;30.84;98722.31;4956832;28;20037;-77
2022/08/09 00:14:02;;;;;;;8.93;1.83;;;;;;;26.22;30.68;98720.25;4956799;28;20031;-79
2022/08/09 00:16:27;;;;;;;3.42;1.70;;;;;;;26.24;30.86;98718.19;4956792;28;20062;-81
2022/08/09 00:18:53;;;;;;;5.35;1.70;;;;;;;26.24;30.93;98718.19;4973234;28;20039;-79
2022/08/09 00:21:18;;;;;;;3.65;1.50;;;;;;;26.26;31.08;98715.28;4956230;28;20050;-79
2022/08/09 00:23:44;;;;;;;4.38;1.80;;;;;;;26.30;31.00;98719.16;4940768;28;20027;-78
2022/08/09 00:26:10;;;;;;;5.82;1.75;;;;;;;26.33;30.70;98710.72;4956644;28;20462;-78
2022/08/09 00:28:36;;;;;;;3.42;1.70;;;;;;;26.34;30.69;98713.13;4957063;28;20039;-79
2022/08/09 00:31:03;;;;;;;3.25;1.73;;;;;;;26.39;30.56;98712.47;4956944;28;20089;-78
2022/08/09 00:33:28;;;;;;;6.53;1.98;;;;;;;26.34;30.57;98707.78;4956726;28;20070;-78
2022/08/09 00:35:54;;;;;;;4.38;1.75;;;;;;;26.35;30.68;98711.28;4956823;28;20031;-78
2022/08/09 00:38:20;;;;;;;5.13;1.80;;;;;;;26.32;30.46;98706.38;4972673;28;20037;-79
2022/08/09 00:40:46;;;;;;;4.72;1.70;;;;;;;26.32;30.79;98701.84;4972651;28;20473;-79
2022/08/09 00:43:12;;;;;;;4.43;1.80;;;;;;;26.36;31.22;98708.41;4957340;28;20027;-78
2022/08/09 00:45:37;;;;;;;3.67;1.60;;;;;;;26.32;31.33;98711.72;4956641;28;20038;-80
2022/08/09 00:48:03;;;;;;;6.75;1.80;;;;;;;26.30;30.99;98713.81;4972743;28;20034;-79
2022/08/09 00:50:29;;;;;;;4.85;1.90;;;;;;;26.29;31.26;98714.84;4956971;28;20038;-79
2022/08/09 00:52:54;;;;;;;6.53;1.98;;;;;;;26.29;31.16;98704.94;4956584;28;20022;-79
2022/08/09 00:55:20;;;;;;;5.03;1.70;;;;;;;26.27;31.27;98708.91;4972638;28;20506;-80
2022/08/09 00:57:46;;;;;;;5.70;1.67;;;;;;;26.32;31.37;98709.06;4956088;28;20029;-79
2022/08/09 01:00:11;;;;;;;4.88;1.80;;;;;;;26.30;31.39;98697.75;4972571;28;20030;-79
2022/08/09 01:02:57;;;;;;;3.00;1.55;;;;;;;26.31;31.47;98707.41;4956309;28;20055;-79
2022/08/09 01:05:55;;;;;;;3.78;1.70;;;;;;;26.36;31.19;98712.91;4941638;28;20474;-79
2022/08/09 01:09:11;;;;;;;2.30;1.45;;;;;;;26.39;30.94;98703.63;4939013;29;20458;-79
2022/08/09 01:11:37;;;;;;;4.85;2.08;;;;;;;26.42;30.89;98708.56;4876685;29;20029;-79
2022/08/09 01:14:06;;;;;;;3.38;1.70;;;;;;;26.38;30.92;98699.31;4876301;29;20461;-79
2022/08/09 01:16:35;;;;;;;6.82;1.75;;;;;;;26.41;30.81;98706.91;4846142;29;20073;-78
2022/08/09 01:19:01;;;;;;;;;;;;;;;26.42;30.73;98708.56;4845874;29;20080;-78
2022/08/09 01:21:43;;;;;;;5.38;1.70;;;;;;;26.35;30.64;98708.63;4860987;29;19912;-78
2022/08/09 01:24:34;;;;;;;4.03;1.90;;;;;;;26.39;30.61;98701.78;4861262;29;20124;-78
2022/08/09 01:27:09;;;;;;;6.05;1.88;;;;;;;26.38;30.37;98700.16;4860844;29;20049;-78
2022/08/09 01:29:41;;;;;;;6.25;1.73;;;;;;;26.43;30.60;98707.53;4861118;29;20045;-79
2022/08/09 01:32:08;;;;;;;4.55;1.60;;;;;;;26.43;30.45;98707.53;4846467;29;20104;-78
2022/08/09 01:34:33;;;;;;;5.63;1.70;;;;;;;26.43;30.23;98712.88;4849497;29;20547;-78
2022/08/09 01:36:59;;;;;;;4.20;1.55;;;;;;;26.40;30.24;98713.31;4864371;29;20049;-78
2022/08/09 01:39:25;;;;;;;6.03;1.83;;;;;;;26.34;30.46;98693.59;4863690;29;20045;-78
2022/08/09 01:41:51;;;;;;;3.42;1.83;;;;;;;26.32;30.58;98703.72;4859705;29;20059;-77
2022/08/09 01:44:16;;;;;;;5.28;1.60;;;;;;;26.35;30.88;98703.28;4903969;29;20064;-78
2022/08/09 01:46:43;;;;;;;5.10;1.80;;;;;;;26.35;30.97;98698.72;4972043;28;20042;-80
2022/08/09 01:49:13;;;;;;;5.13;1.80;;;;;;;26.33;31.07;98689.31;4971942;28;20411;-78
2022/08/09 01:51:42;;;;;;;3.88;1.60;;;;;;;26.31;30.73;98686.84;4957074;28;20067;-78
2022/08/09 01:54:08;;;;;;;3.50;1.75;;;;;;;26.30;31.10;98679.03;4971765;28;20035;-78
2022/08/09 01:56:33;;;;;;;6.28;1.80;;;;;;;26.30;30.70;98671.81;4971493;28;20047;-79
2022/08/09 01:59:00;;;;;;;4.82;1.92;;;;;;;26.26;31.33;98667.13;4971799;28;20075;-79
2022/08/09 02:01:26;;;;;;;4.35;1.70;;;;;;;26.22;31.21;98666.75;4939468;29;20070;-78
2022/08/09 02:03:52;;;;;;;4.95;2.00;;;;;;;26.18;31.26;98652.19;4971699;28;20475;-79
2022/08/09 02:07:07;;;;;;;6.80;1.70;;;;;;;26.16;31.20;98655.06;4971432;28;20118;-80
2022/08/09 02:09:03;;;;;;;6.18;1.90;;;;;;;26.10;31.03;98639.91;4955445;29;20418;-79
2022/08/09 02:11:28;;;;;;;8.48;1.90;;;;;;;26.13;30.77;98641.31;4971491;28;20031;-79
2022/08/09 02:13:54;;;;;;;8.48;1.83;;;;;;;26.13;30.93;98635.97;4954975;29;20118;-79
2022/08/09 02:16:19;;;;;;;3.75;1.70;;;;;;;26.14;30.54;98626.88;4955475;29;20031;-79
2022/08/09 02:18:45;;;;;;;4.75;1.90;;;;;;;26.15;30.19;98629.34;4971624;28;20522;-79
2022/08/09 02:21:12;;;;;;;3.63;1.60;;;;;;;26.14;30.20;98624.22;4954574;29;20075;-79
2022/08/09 02:23:40;;;;;;;6.00;1.90;;;;;;;26.14;30.12;98618.88;4955092;29;20506;-80
2022/08/09 02:26:06;;;;;;;;;;;;;;;26.26;29.90;98632.34;4971919;28;20039;-79
2022/08/09 02:28:34;;;;;;;6.60;1.98;;;;;;;26.27;29.70;98629.44;4955285;29;19917;-80
2022/08/09 02:31:34;;;;;;;4.93;1.63;;;;;;;26.34;29.52;98624.81;4954830;29;20197;-80
2022/08/09 02:34:00;;;;;;;3.47;1.83;;;;;;;26.38;29.82;98627.91;4900461;29;20072;-79
2022/08/09 02:36:37;;;;;;;6.30;1.80;;;;;;;26.41;29.54;98627.47;4884811;29;20044;-80
2022/08/09 02:39:06;;;;;;;6.75;2.00;;;;;;;26.38;29.04;98619.03;4885005;29;20048;-79
2022/08/09 02:41:45;;;;;;;4.00;1.80;;;;;;;26.39;29.59;98620.69;4884323;29;20032;-80
2022/08/09 02:44:19;;;;;;;5.85;1.98;;;;;;;26.43;29.24;98617.34;4884485;29;20036;-80
2022/08/09 02:46:46;;;;;;;4.05;1.70;;;;;;;26.44;29.23;98613.63;4885441;29;20039;-80
2022/08/09 02:49:11;;;;;;;5.75;1.60;;;;;;;26.52;29.01;98612.53;4884381;29;20072;-80
2022/08/09 02:51:38;;;;;;;4.55;1.60;;;;;;;26.51;28.74;98606.31;4884375;29;20476;-77
2022/08/09 02:54:04;;;;;;;4.00;1.80;;;;;;;26.54;29.04;98624.63;4899878;29;20032;-79
2022/08/09 02:56:29;;;;;;;5.30;1.95;;;;;;;26.53;29.04;98620.31;4883752;29;20055;-79
2022/08/09 02:58:55;;;;;;;5.38;1.73;;;;;;;26.54;28.99;98627.28;4884213;29;20087;-79
2022/08/09 03:01:20;;;;;;;8.63;1.70;;;;;;;26.48;29.49;98617.47;4899724;29;20056;-80
2022/08/09 03:03:46;;;;;;;4.40;1.70;;;;;;;26.51;28.79;98618.91;4915233;29;20492;-80
2022/08/09 03:06:13;;;;;;;2.45;1.50;;;;;;;26.39;29.14;98620.69;4883910;29;20047;-79
2022/08/09 03:08:45;;;;;;;3.60;1.90;;;;;;;26.40;29.14;98616.97;4904575;29;20075;-80
2022/08/09 03:11:15;;;;;;;4.68;1.45;;;;;;;26.44;29.13;98615.47;4970162;28;20079;-80
2022/08/09 03:13:41;;;;;;;9.50;2.00;;;;;;;26.43;28.94;98622.69;4970690;28;20019;-80
2022/08/09 03:16:07;;;;;;;4.88;1.70;;;;;;;26.42;28.71;98626.41;4970172;28;20078;-79
2022/08/09 03:18:34;;;;;;;7.93;1.73;;;;;;;26.47;28.41;98621.22;4970764;28;20038;-79
2022/08/09 03:20:59;;;;;;;4.43;1.92;;;;;;;26.48;29.16;98617.47;4970061;28;20038;-80
2022/08/09 03:23:25;;;;;;;6.47;1.85;;;;;;;26.54;28.90;98621.13;4970222;28;20479;-80
2022/08/09 03:25:50;;;;;;;6.32;2.05;;;;;;;26.60;28.68;98622.91;4954113;29;20407;-80
2022/08/09 03:28:16;;;;;;;5.00;1.65;;;;;;;26.62;28.86;98620.81;4970241;28;20100;-80
2022/08/09 03:30:42;;;;;;;5.10;1.60;;;;;;;26.69;29.27;98616.25;4953808;29;20495;-81
2022/08/09 03:33:07;;;;;;;3.92;1.92;;;;;;;26.78;28.78;98623.97;4969289;28;20495;-80
2022/08/09 03:35:34;;;;;;;3.67;1.45;;;;;;;26.89;28.43;98626.69;4970241;28;20035;-80
2022/08/09 03:38:00;;;;;;;6.13;1.95;;;;;;;26.95;28.68;98613.47;4969862;28;20031;-80
2022/08/09 03:40:25;;;;;;;9.15;1.92;;;;;;;27.02;28.50;98622.22;4953737;29;20031;-79
2022/08/09 03:42:51;;;;;;;7.03;2.25;;;;;;;27.18;28.98;98623.44;4969801;28;20050;-76
2022/08/09 03:45:16;;;;;;;10.13;1.65;;;;;;;27.74;27.98;98618.72;4954975;28;20039;-80
2022/08/09 03:47:43;;;;;;;10.65;2.08;;;;;;;28.51;27.71;98631.16;4974717;28;20035;-83
2022/08/09 03:50:08;;;;;;;23.50;2.33;;;;;;;29.33;27.15;98629.31;4973044;28;20208;-84
2022/08/09 03:52:34;;;;;;;12.60;1.92;;;;;;;30.14;26.40;98631.69;4969655;28;20543;-75
2022/08/09 03:55:02;;;;;;;14.98;2.05;;;;;;;30.85;25.43;98633.69;4968995;28;20086;-77
2022/08/09 03:57:28;;;;;;;7.93;1.92;;;;;;;31.49;24.43;98635.72;4969044;28;20519;-75
2022/08/09 03:59:53;;;;;;;22.33;1.88;;;;;;;32.17;23.41;98631.69;4969511;28;20031;-73
2022/08/09 04:02:19;;;;;;;10.48;2.28;;;;;;;32.82;22.56;98643.09;4969243;28;20047;-74
2022/08/09 04:04:45;;;;;;;13.07;1.75;;;;;;;33.41;21.90;98628.34;4969428;28;20024;-73
2022/08/09 04:07:10;;;;;;;8.88;1.85;;;;;;;34.07;21.56;98637.53;4969593;28;20053;-77
2022/08/09 04:09:36;;;;;;;11.00;2.08;;;;;;;34.72;20.83;98637.63;4937334;29;20097;-76
2022/08/09 04:12:10;;;;;;;11.45;1.80;;;;;;;35.38;20.78;98634.84;4953384;29;20035;-80
2022/08/09 04:14:36;;;;;;;9.18;1.70;;;;;;;35.97;20.86;98635.72;4955338;28;20033;-77
